Terminal Aerodrome Forecast
Issued by NWS Buffalo, NY

Home | Current Version | Previous Version | Text Only | Print | Product List | Glossary On
Versions: 1 2 3 4 5 6 7 8 9 10 11 12 13 14 15 16 17 18 19 20 21 22 23 24 25 26 27
000
FTUS41 KBUF 291700
TAFBUF
TAF
KBUF 291740Z 2918/3018 23014G22KT P6SM SCT200
     FM292300 19010KT P6SM BKN150
     FM300300 21016G24KT 2SM -SHSN OVC040
     FM300500 22018G26KT P6SM VCSH OVC035
     FM300700 23020G28KT 3SM -SHRASN OVC025
     FM301000 25022G30KT P6SM VCSH OVC010
     FM301400 26018G24KT P6SM VCSH OVC025=

USA.gov is the U.S. government's official web portal to all federal, state and local government web resources and services.